Home > Products > Valid Products > TAF

000
FTUS42 KMHX 251120
TAFEWN
TAF
KEWN 251120Z 2512/2612 23005KT P6SM SKC
     FM251800 22007KT P6SM FEW250
     FM260100 20003KT P6SM SKC=



000
FTUS42 KMHX 250521
TAFEWN
TAF
KEWN 250521Z 2506/2606 23005KT P6SM SKC
     FM251800 22007KT P6SM FEW250
     FM260100 20003KT P6SM SKC=



000
FTUS42 KMHX 242322
TAFEWN
TAF
KEWN 242322Z 2500/2524 00000KT P6SM SKC
     FM251900 22005KT P6SM FEW250=



000
FTUS42 KMHX 241720
TAFEWN
TAF
KEWN 241720Z 2418/2518 28008KT P6SM SKC=



000
FTUS42 KMHX 241120
TAFEWN
TAF
KEWN 241120Z 2412/2512 24004KT P6SM SCT070
     FM241400 27008KT P6SM SCT150
     FM250100 22004KT P6SM SKC=



000
FTUS42 KMHX 231334 AAA
TAFEWN
TAF AMD
KEWN 231334Z 2314/2412 34009KT P6SM VCSH BKN020
     FM231600 33010KT P6SM VCTS BKN025CB
     FM232300 34006KT P6SM BKN050
     FM240600 26002KT P6SM SKC=



000
FTUS42 KMHX 231120
TAFEWN
TAF
KEWN 231120Z 2312/2412 VRB04KT P6SM SCT015
      TEMPO 2312/2314 BKN015
     FM231400 33005KT P6SM VCSH BKN020
     FM231600 33010KT P6SM VCTS BKN025CB
     FM232300 34006KT P6SM BKN050
     FM240600 26002KT P6SM SKC=



000
FTUS42 KMHX 230746 AAA
TAFEWN
TAF AMD
KEWN 230746Z 2308/2406 VRB04KT P6SM SCT015
      TEMPO 2310/2314 BKN015
     FM231400 33005KT P6SM VCSH BKN020
     FM231600 33010KT P6SM VCTS BKN025CB
     FM232300 34006KT P6SM OVC050=



000
FTUS42 KMHX 222330 AAA
TAFEWN
TAF AMD
KEWN 222330Z 2300/2324 36005KT P6SM VCSH BKN040
     FM230600 VRB04KT P6SM VCSH BKN020
     FM230800 VRB04KT P6SM VCSH BKN010
     FM231400 33005KT P6SM VCSH BKN020
     FM231500 33010KT P6SM VCSH BKN025=



    US Dept of Commerce
    National Oceanic and Atmospheric Administration
    National Weather Service
    1325 East West Highway
    Silver Spring, MD 20910
    Page Author: NWS Internet Services Team
Disclaimer
Information Quality
Credits
Glossary
Privacy Policy
Freedom of Information Act (FOIA)
About Us
Career Opportunities